Aviation Digital Data Service (ADDS)

Output produced by METARs form (0255 UTC 22 April 2019)
found at http://www.aviationweather.gov/metar/data/
 
Forecast for: GMML (LAAYOUNE/HASSAN , MA)
Text: TAF GMML 212300Z 2200/2306 36009KT CAVOK
Forecast period: 0000 UTC 22 April 2019 to 0600 UTC 23 April 2019
Forecast type: FROM: standard forecast or significant change
Winds: from the N (360 degrees) at 10 MPH (9 knots; 4.6 m/s)
Visibility: 6 or more miles 10+ km)
Ceiling: unknown
Clouds: missing
Weather: NSW  (no significant weather)